createdAt,value
2023-02-09T00:00:14.843Z,72.00
2023-02-09T00:02:47.886Z,71.64
2023-02-09T00:05:19.356Z,70.67
2023-02-09T00:07:50.578Z,65.59
2023-02-09T00:10:21.638Z,67.76
2023-02-09T00:13:11.095Z,71.31
2023-02-09T00:15:42.520Z,70.15
2023-02-09T00:18:13.620Z,69.49
2023-02-09T00:20:44.967Z,66.83
2023-02-09T00:23:16.337Z,64.49
2023-02-09T00:25:47.559Z,58.69
2023-02-09T00:28:18.530Z,64.21
2023-02-09T00:30:49.917Z,66.86
2023-02-09T00:33:21.515Z,60.47
2023-02-09T00:35:53.135Z,59.15
2023-02-09T00:38:25.517Z,60.26
2023-02-09T00:40:56.593Z,71.34
2023-02-09T00:43:27.569Z,68.75
2023-02-09T00:45:58.902Z,71.71
2023-02-09T00:48:30.640Z,73.50
2023-02-09T00:51:01.958Z,79.83
2023-02-09T00:53:33.391Z,91.77
2023-02-09T00:56:04.509Z,96.31
2023-02-09T00:58:35.842Z,96.69
2023-02-09T01:01:06.960Z,92.01
2023-02-09T01:03:38.272Z,90.04
2023-02-09T01:06:09.431Z,86.15
2023-02-09T01:08:40.814Z,83.35
2023-02-09T01:11:13.457Z,83.65
2023-02-09T01:13:46.307Z,89.01
2023-02-09T01:16:20.296Z,90.77
2023-02-09T01:18:51.777Z,99.05
2023-02-09T01:21:24.510Z,94.60
2023-02-09T01:23:55.566Z,90.92
2023-02-09T01:26:26.837Z,94.37
2023-02-09T01:28:58.035Z,91.56
2023-02-09T01:31:30.273Z,85.99
2023-02-09T01:34:03.901Z,87.96
2023-02-09T01:36:35.734Z,90.45
2023-02-09T01:39:07.276Z,95.87
2023-02-09T01:41:37.729Z,86.84
2023-02-09T01:44:14.779Z,80.26
2023-02-09T01:46:46.579Z,76.74
2023-02-09T01:49:21.005Z,82.98
2023-02-09T01:51:55.306Z,85.58
2023-02-09T01:54:40.598Z,85.90
2023-02-09T01:57:14.647Z,84.87
2023-02-09T01:59:50.488Z,82.08
2023-02-09T02:02:22.460Z,79.84
2023-02-09T02:04:54.223Z,78.22
2023-02-09T02:07:40.661Z,84.94
2023-02-09T02:10:12.565Z,80.30
2023-02-09T02:12:45.598Z,82.65
2023-02-09T02:15:17.161Z,81.42
2023-02-09T02:18:23.608Z,84.85
2023-02-09T02:21:30.632Z,90.06
2023-02-09T02:24:02.128Z,88.99
2023-02-09T02:26:42.390Z,94.63
2023-02-09T02:29:27.802Z,88.85
2023-02-09T02:32:11.484Z,82.80
2023-02-09T02:34:57.805Z,84.50
2023-02-09T02:37:41.273Z,84.26
2023-02-09T02:40:29.131Z,82.17
2023-02-09T02:43:22.979Z,75.76
2023-02-09T02:46:23.293Z,75.91
2023-02-09T02:48:58.723Z,85.18
2023-02-09T02:51:49.892Z,89.69
2023-02-09T02:54:29.915Z,93.47
2023-02-09T02:57:06.234Z,92.59
2023-02-09T02:59:41.149Z,94.62
2023-02-09T03:02:25.551Z,95.05
2023-02-09T03:04:58.911Z,98.20
2023-02-09T03:07:30.181Z,100.00
2023-02-09T03:10:03.052Z,100.00
2023-02-09T03:12:58.732Z,97.98
2023-02-09T03:15:32.877Z,99.03
2023-02-09T03:18:32.073Z,96.86
2023-02-09T03:21:21.493Z,83.10
2023-02-09T03:24:08.404Z,80.10
2023-02-09T03:26:47.921Z,82.55
2023-02-09T03:29:20.209Z,85.58
2023-02-09T03:31:51.985Z,86.11
2023-02-09T03:34:23.294Z,92.70
2023-02-09T03:36:54.689Z,93.59
2023-02-09T03:39:25.961Z,89.48
2023-02-09T03:41:57.044Z,90.24
2023-02-09T03:44:28.705Z,89.64
2023-02-09T03:47:02.260Z,82.67
2023-02-09T03:49:36.291Z,75.25
2023-02-09T03:52:10.217Z,76.36
2023-02-09T03:54:42.120Z,69.75
2023-02-09T03:57:14.140Z,70.59
2023-02-09T03:59:45.357Z,68.63
2023-02-09T04:02:16.486Z,77.50
2023-02-09T04:04:47.617Z,72.05
2023-02-09T04:07:19.150Z,74.33
2023-02-09T04:09:50.356Z,74.50
2023-02-09T04:12:21.550Z,77.24
2023-02-09T04:14:52.961Z,76.70
2023-02-09T04:17:23.952Z,79.04
2023-02-09T04:19:54.929Z,80.12
2023-02-09T04:22:26.044Z,78.02
2023-02-09T04:24:57.231Z,77.12
2023-02-09T04:27:29.826Z,76.42
2023-02-09T04:30:01.205Z,75.52
2023-02-09T04:32:33.935Z,74.82
2023-02-09T04:35:04.942Z,78.01
2023-02-09T04:37:35.967Z,77.91
2023-02-09T04:40:07.924Z,79.19
2023-02-09T04:42:39.006Z,81.41
2023-02-09T04:47:40.467Z,83.33
2023-02-09T04:50:11.770Z,86.16
2023-02-09T04:52:43.132Z,87.66
2023-02-09T04:55:14.544Z,88.85
2023-02-09T04:58:04.514Z,84.36
2023-02-09T05:00:35.848Z,83.43
2023-02-09T05:03:07.133Z,83.17
2023-02-09T05:05:42.264Z,85.80
2023-02-09T05:08:13.620Z,90.11
2023-02-09T05:10:45.000Z,89.23
2023-02-09T05:13:16.147Z,91.82
2023-02-09T05:15:47.218Z,93.56
2023-02-09T05:18:18.120Z,97.20
2023-02-09T05:20:50.044Z,97.47
2023-02-09T05:23:21.413Z,100.00
2023-02-09T05:25:52.885Z,98.10
2023-02-09T05:28:24.508Z,98.18
2023-02-09T05:30:56.246Z,99.92
2023-02-09T05:33:27.757Z,100.00
2023-02-09T05:35:58.327Z,100.00
2023-02-09T05:38:29.787Z,100.00
2023-02-09T05:41:05.039Z,100.00
2023-02-09T05:43:36.777Z,100.00
2023-02-09T05:46:08.636Z,100.00
2023-02-09T05:48:39.859Z,100.00
2023-02-09T05:51:11.028Z,100.00
2023-02-09T05:53:42.191Z,100.00
2023-02-09T05:56:13.468Z,100.00
2023-02-09T05:58:45.257Z,100.00
2023-02-09T06:01:16.493Z,100.00
2023-02-09T06:03:47.705Z,100.00
2023-02-09T06:06:18.815Z,100.00
2023-02-09T06:08:49.807Z,100.00
2023-02-09T06:11:20.808Z,100.00
2023-02-09T06:13:51.871Z,100.00
2023-02-09T06:16:23.097Z,100.00
2023-02-09T06:18:54.399Z,100.00
2023-02-09T06:21:27.401Z,100.00
2023-02-09T06:24:02.909Z,100.00
2023-02-09T06:26:35.346Z,100.00
2023-02-09T06:29:06.693Z,100.00
2023-02-09T06:31:38.157Z,100.00
2023-02-09T06:34:09.924Z,100.00
2023-02-09T06:36:41.415Z,100.00
2023-02-09T06:39:13.396Z,100.00
2023-02-09T06:41:44.779Z,100.00
2023-02-09T06:44:16.032Z,100.00
2023-02-09T06:46:47.513Z,100.00
2023-02-09T06:49:19.007Z,100.00
2023-02-09T06:51:50.840Z,100.00
2023-02-09T06:54:22.280Z,100.00
2023-02-09T06:56:55.007Z,100.00
2023-02-09T06:59:26.788Z,100.00
2023-02-09T07:01:58.110Z,100.00
2023-02-09T07:04:29.483Z,100.00
2023-02-09T07:07:00.487Z,100.00
2023-02-09T07:09:31.579Z,100.00
2023-02-09T07:12:05.618Z,100.00
2023-02-09T07:14:36.607Z,100.00
2023-02-09T07:17:07.749Z,100.00
2023-02-09T07:19:38.868Z,100.00
2023-02-09T07:22:10.244Z,100.00
2023-02-09T07:24:41.415Z,100.00
2023-02-09T07:27:12.437Z,100.00
2023-02-09T07:29:43.585Z,100.00
2023-02-09T07:32:15.123Z,100.00
2023-02-09T07:34:46.652Z,100.00
2023-02-09T07:37:17.927Z,100.00
2023-02-09T07:39:48.891Z,100.00
2023-02-09T07:42:20.785Z,100.00
2023-02-09T07:44:59.944Z,100.00
2023-02-09T07:47:33.384Z,100.00
2023-02-09T07:50:04.597Z,100.00
2023-02-09T07:52:35.761Z,100.00
2023-02-09T07:55:08.953Z,100.00
2023-02-09T07:57:40.168Z,100.00
2023-02-09T08:00:13.081Z,100.00
2023-02-09T08:02:48.671Z,100.00
2023-02-09T08:05:28.980Z,100.00
2023-02-09T08:08:00.264Z,100.00
2023-02-09T08:10:31.635Z,100.00
2023-02-09T08:13:03.986Z,100.00
2023-02-09T08:15:47.948Z,100.00
2023-02-09T08:18:25.656Z,100.00
2023-02-09T08:20:56.841Z,100.00
2023-02-09T08:23:32.050Z,100.00
2023-02-09T08:26:06.698Z,100.00
2023-02-09T08:28:44.312Z,100.00
2023-02-09T08:31:18.593Z,100.00
2023-02-09T08:33:51.251Z,100.00
2023-02-09T08:36:23.237Z,100.00
2023-02-09T08:38:54.781Z,100.00
2023-02-09T08:41:25.776Z,100.00
2023-02-09T08:43:57.089Z,100.00
2023-02-09T08:46:28.597Z,100.00
2023-02-09T08:48:59.878Z,100.00
2023-02-09T08:51:31.283Z,100.00
2023-02-09T08:54:02.504Z,100.00
2023-02-09T08:56:33.745Z,100.00
2023-02-09T08:59:05.274Z,100.00
2023-02-09T09:01:36.286Z,100.00
2023-02-09T09:04:08.116Z,100.00
2023-02-09T09:06:39.474Z,100.00
2023-02-09T09:09:10.693Z,100.00
2023-02-09T09:11:41.922Z,100.00
2023-02-09T09:14:12.861Z,100.00
2023-02-09T09:16:44.028Z,100.00
2023-02-09T09:19:15.781Z,100.00
2023-02-09T09:21:47.064Z,100.00
2023-02-09T09:24:18.248Z,100.00
2023-02-09T09:26:49.384Z,100.00
2023-02-09T09:29:20.981Z,100.00
2023-02-09T09:31:52.372Z,100.00
2023-02-09T09:34:23.207Z,100.00
2023-02-09T09:36:54.264Z,100.00
2023-02-09T09:39:27.060Z,100.00
2023-02-09T09:42:02.077Z,100.00
2023-02-09T09:44:44.744Z,100.00
2023-02-09T09:47:21.394Z,100.00
2023-02-09T09:49:52.562Z,100.00
2023-02-09T09:52:43.985Z,100.00
2023-02-09T09:55:23.923Z,100.00
2023-02-09T09:57:56.530Z,100.00
2023-02-09T10:00:40.701Z,100.00
2023-02-09T10:03:21.652Z,100.00
2023-02-09T10:05:58.245Z,100.00
2023-02-09T10:08:49.206Z,100.00
2023-02-09T10:11:26.051Z,100.00
2023-02-09T10:13:59.282Z,100.00
2023-02-09T10:16:39.568Z,100.00
2023-02-09T10:19:34.297Z,100.00
2023-02-09T10:22:15.232Z,100.00
2023-02-09T10:24:46.427Z,100.00
2023-02-09T10:27:30.056Z,100.00
2023-02-09T10:30:22.564Z,100.00
2023-02-09T10:32:54.041Z,100.00
2023-02-09T10:35:49.294Z,100.00
2023-02-09T10:38:22.888Z,100.00
2023-02-09T10:40:54.240Z,100.00
2023-02-09T10:43:34.858Z,100.00
2023-02-09T10:46:14.470Z,100.00
2023-02-09T10:48:47.859Z,100.00
2023-02-09T10:51:31.460Z,100.00
2023-02-09T10:54:06.074Z,100.00
2023-02-09T10:56:48.778Z,100.00
2023-02-09T10:59:25.202Z,100.00
2023-02-09T11:02:04.206Z,100.00
2023-02-09T11:04:43.001Z,100.00
2023-02-09T11:07:18.608Z,100.00
2023-02-09T11:09:54.530Z,100.00
2023-02-09T11:12:29.258Z,100.00
2023-02-09T11:15:00.343Z,100.00
2023-02-09T11:17:38.853Z,100.00
2023-02-09T11:20:38.677Z,100.00
2023-02-09T11:23:24.627Z,100.00
2023-02-09T11:25:57.226Z,100.00
2023-02-09T11:28:31.011Z,100.00
2023-02-09T11:31:22.046Z,100.00
2023-02-09T11:34:22.922Z,100.00
2023-02-09T11:37:24.850Z,100.00
2023-02-09T11:40:32.217Z,100.00
2023-02-09T11:43:30.830Z,100.00
2023-02-09T11:46:21.888Z,100.00
2023-02-09T11:49:06.883Z,100.00
2023-02-09T11:51:40.998Z,100.00
2023-02-09T11:54:27.406Z,100.00
2023-02-09T11:57:09.669Z,100.00
2023-02-09T11:59:45.985Z,100.00
2023-02-09T12:02:23.721Z,100.00
2023-02-09T12:05:03.151Z,100.00
2023-02-09T12:07:37.404Z,100.00
2023-02-09T12:10:29.728Z,100.00
2023-02-09T12:13:24.950Z,100.00
2023-02-09T12:16:03.116Z,100.00
2023-02-09T12:18:35.893Z,100.00
2023-02-09T12:21:08.473Z,100.00
2023-02-09T12:23:43.268Z,100.00
2023-02-09T12:26:14.572Z,100.00
2023-02-09T12:29:05.886Z,100.00
2023-02-09T12:32:05.629Z,100.00
2023-02-09T12:34:51.053Z,100.00
2023-02-09T12:37:30.390Z,100.00
2023-02-09T12:40:19.775Z,100.00
2023-02-09T12:42:55.568Z,100.00
2023-02-09T12:45:38.829Z,100.00
2023-02-09T12:48:16.113Z,100.00
2023-02-09T12:50:48.445Z,100.00
2023-02-09T12:53:25.999Z,100.00
2023-02-09T12:56:07.352Z,100.00
2023-02-09T12:59:04.432Z,100.00
2023-02-09T13:02:09.218Z,100.00
2023-02-09T13:05:00.283Z,100.00
2023-02-09T13:07:55.110Z,100.00
2023-02-09T13:10:38.319Z,100.00
2023-02-09T13:13:37.272Z,100.00
2023-02-09T13:16:35.791Z,100.00
2023-02-09T13:19:48.049Z,100.00
2023-02-09T13:22:32.678Z,100.00
2023-02-09T13:25:11.631Z,100.00
2023-02-09T13:27:49.301Z,100.00
2023-02-09T13:30:34.415Z,100.00
2023-02-09T13:33:23.732Z,100.00
2023-02-09T13:35:55.009Z,100.00
2023-02-09T13:38:30.904Z,100.00
2023-02-09T13:41:04.871Z,100.00
2023-02-09T13:43:39.741Z,100.00
2023-02-09T13:46:29.880Z,100.00
2023-02-09T13:49:21.448Z,100.00
2023-02-09T13:52:11.460Z,100.00
2023-02-09T13:54:43.382Z,100.00
2023-02-09T13:57:37.772Z,100.00
2023-02-09T14:00:28.341Z,100.00
2023-02-09T14:03:06.233Z,100.00
2023-02-09T14:05:48.982Z,100.00
2023-02-09T14:08:21.674Z,100.00
2023-02-09T14:11:02.321Z,100.00
2023-02-09T14:13:38.762Z,100.00
2023-02-09T14:16:10.537Z,100.00
2023-02-09T14:18:57.152Z,100.00
2023-02-09T14:21:32.497Z,100.00
2023-02-09T14:24:20.167Z,100.00
2023-02-09T14:27:08.491Z,100.00
2023-02-09T14:29:40.526Z,100.00
2023-02-09T14:32:32.314Z,100.00
2023-02-09T14:35:34.946Z,100.00
2023-02-09T14:38:06.206Z,100.00
2023-02-09T14:40:38.789Z,100.00
2023-02-09T14:43:12.706Z,100.00
2023-02-09T14:45:49.485Z,100.00
2023-02-09T14:48:28.783Z,100.00
2023-02-09T14:51:28.905Z,100.00
2023-02-09T14:53:59.928Z,100.00
2023-02-09T14:56:36.635Z,100.00
2023-02-09T14:59:10.926Z,100.00
2023-02-09T15:01:42.216Z,100.00
2023-02-09T15:04:16.805Z,100.00
2023-02-09T15:06:50.656Z,100.00
2023-02-09T15:09:33.963Z,100.00
2023-02-09T15:12:06.574Z,100.00
2023-02-09T15:14:48.421Z,100.00
2023-02-09T15:17:22.518Z,100.00
2023-02-09T15:19:54.205Z,100.00
2023-02-09T15:22:26.132Z,100.00
2023-02-09T15:24:57.366Z,100.00
2023-02-09T15:27:35.612Z,100.00
2023-02-09T15:30:19.545Z,100.00
2023-02-09T15:32:51.265Z,100.00
2023-02-09T15:35:22.974Z,100.00
2023-02-09T15:38:03.952Z,100.00
2023-02-09T15:41:05.685Z,100.00
2023-02-09T15:43:55.124Z,100.00
2023-02-09T15:46:44.426Z,100.00
2023-02-09T15:49:15.683Z,100.00
2023-02-09T15:51:46.902Z,100.00
2023-02-09T15:54:21.437Z,100.00
2023-02-09T15:56:52.888Z,100.00
2023-02-09T15:59:25.783Z,100.00
2023-02-09T16:02:00.447Z,100.00
2023-02-09T16:04:31.808Z,100.00
2023-02-09T16:07:02.897Z,100.00
2023-02-09T16:09:36.108Z,100.00
2023-02-09T16:12:11.422Z,100.00
2023-02-09T16:14:42.379Z,100.00
2023-02-09T16:17:13.646Z,100.00
2023-02-09T16:19:47.333Z,100.00
2023-02-09T16:22:18.867Z,100.00
2023-02-09T16:24:50.848Z,100.00
2023-02-09T16:27:29.739Z,100.00
2023-02-09T16:30:01.527Z,100.00
2023-02-09T16:32:33.018Z,100.00
2023-02-09T16:35:16.335Z,100.00
2023-02-09T16:37:50.220Z,100.00
2023-02-09T16:40:24.187Z,100.00
2023-02-09T16:42:56.110Z,100.00
2023-02-09T16:45:28.138Z,100.00
2023-02-09T16:48:01.147Z,100.00
2023-02-09T16:50:39.429Z,100.00
2023-02-09T16:53:42.174Z,100.00
2023-02-09T16:56:16.975Z,100.00
2023-02-09T16:58:49.017Z,100.00
2023-02-09T17:01:20.707Z,100.00
2023-02-09T17:03:54.107Z,100.00
2023-02-09T17:06:27.334Z,100.00
2023-02-09T17:09:00.163Z,100.00
2023-02-09T17:11:32.060Z,100.00
2023-02-09T17:14:03.297Z,100.00
2023-02-09T17:16:36.966Z,100.00
2023-02-09T17:19:13.403Z,100.00
2023-02-09T17:21:45.014Z,100.00
2023-02-09T17:24:17.775Z,100.00
2023-02-09T17:26:49.928Z,100.00
2023-02-09T17:29:23.449Z,100.00
2023-02-09T17:31:54.611Z,100.00
2023-02-09T17:34:28.478Z,100.00
2023-02-09T17:37:00.388Z,100.00
2023-02-09T17:39:30.961Z,100.00
2023-02-09T17:42:02.836Z,100.00
2023-02-09T17:44:45.707Z,100.00
2023-02-09T17:47:22.075Z,100.00
2023-02-09T17:49:53.452Z,100.00
2023-02-09T17:52:24.383Z,100.00
2023-02-09T17:54:55.899Z,100.00
2023-02-09T17:57:28.976Z,100.00
2023-02-09T18:00:00.530Z,100.00
2023-02-09T18:02:34.892Z,100.00
2023-02-09T18:05:05.893Z,100.00
2023-02-09T18:07:36.536Z,100.00
2023-02-09T18:10:08.457Z,100.00
2023-02-09T18:12:40.477Z,100.00
2023-02-09T18:15:35.007Z,100.00
2023-02-09T18:18:06.597Z,100.00
2023-02-09T18:20:38.741Z,100.00
2023-02-09T18:23:10.438Z,100.00
2023-02-09T18:25:41.877Z,100.00
2023-02-09T18:28:13.097Z,100.00
2023-02-09T18:30:45.419Z,100.00
2023-02-09T18:33:17.998Z,100.00
2023-02-09T18:35:49.470Z,100.00
2023-02-09T18:38:31.585Z,100.00
2023-02-09T18:41:06.374Z,100.00
2023-02-09T18:43:37.605Z,100.00
2023-02-09T18:46:20.975Z,100.00
2023-02-09T18:48:55.877Z,100.00
2023-02-09T18:51:27.611Z,100.00
2023-02-09T18:53:59.540Z,100.00
2023-02-09T18:56:31.075Z,100.00
2023-02-09T18:59:02.223Z,100.00
2023-02-09T19:01:33.636Z,100.00
2023-02-09T19:04:05.232Z,100.00
2023-02-09T19:06:36.966Z,100.00
2023-02-09T19:09:08.142Z,100.00
2023-02-09T19:11:39.214Z,100.00
2023-02-09T19:14:29.174Z,100.00
2023-02-09T19:17:00.728Z,100.00
2023-02-09T19:19:32.013Z,100.00
2023-02-09T19:22:03.565Z,100.00
2023-02-09T19:24:34.492Z,100.00
2023-02-09T19:27:08.181Z,100.00
2023-02-09T19:29:49.898Z,100.00
2023-02-09T19:32:37.636Z,100.00
2023-02-09T19:35:09.095Z,100.00
2023-02-09T19:41:08.611Z,100.00
2023-02-09T19:43:44.193Z,100.00
2023-02-09T19:46:23.124Z,100.00
2023-02-09T19:48:59.022Z,100.00
2023-02-09T19:51:30.268Z,100.00
2023-02-09T19:54:01.670Z,100.00
2023-02-09T19:56:33.042Z,100.00
2023-02-09T19:59:05.362Z,100.00
2023-02-09T20:01:36.995Z,100.00
2023-02-09T20:04:09.023Z,100.00
2023-02-09T20:06:44.199Z,100.00
2023-02-09T20:09:23.479Z,100.00
2023-02-09T20:14:33.465Z,100.00
2023-02-09T20:17:05.187Z,100.00
2023-02-09T20:19:38.648Z,100.00
2023-02-09T20:22:10.094Z,100.00
2023-02-09T20:24:41.808Z,100.00
2023-02-09T20:27:13.319Z,100.00
2023-02-09T20:29:44.816Z,100.00
2023-02-09T20:32:16.108Z,100.00
2023-02-09T20:34:47.566Z,100.00
2023-02-09T20:37:21.353Z,100.00
2023-02-09T20:39:53.477Z,100.00
2023-02-09T20:42:42.890Z,100.00
2023-02-09T20:45:36.253Z,100.00
2023-02-09T20:48:07.618Z,100.00
2023-02-09T20:50:38.706Z,100.00
2023-02-09T20:53:09.782Z,100.00
2023-02-09T20:55:41.003Z,100.00
2023-02-09T20:58:14.807Z,100.00
2023-02-09T21:00:46.101Z,100.00
2023-02-09T21:03:16.882Z,100.00
2023-02-09T21:05:48.148Z,100.00
2023-02-09T21:08:19.383Z,100.00
2023-02-09T21:11:00.421Z,100.00
2023-02-09T21:13:31.508Z,100.00
2023-02-09T21:16:04.183Z,100.00
2023-02-09T21:18:35.927Z,100.00
2023-02-09T21:21:09.661Z,100.00
2023-02-09T21:23:41.098Z,100.00
2023-02-09T21:26:14.607Z,100.00
2023-02-09T21:28:46.769Z,100.00
2023-02-09T21:31:23.986Z,100.00
2023-02-09T21:33:55.012Z,100.00
2023-02-09T21:36:26.110Z,100.00
2023-02-09T21:38:57.269Z,100.00
2023-02-09T21:41:47.066Z,100.00
2023-02-09T21:44:18.235Z,100.00
2023-02-09T21:46:51.048Z,98.07
2023-02-09T21:49:22.345Z,99.16
2023-02-09T21:51:53.535Z,98.59
2023-02-09T21:54:28.009Z,100.00
2023-02-09T21:56:59.127Z,98.56
2023-02-09T21:59:30.697Z,96.70
2023-02-09T22:02:01.090Z,98.11
2023-02-09T22:04:32.401Z,98.55
2023-02-09T22:07:03.417Z,95.64
2023-02-09T22:09:34.483Z,100.00
2023-02-09T22:12:06.314Z,100.00
2023-02-09T22:14:37.572Z,94.92
2023-02-09T22:17:09.194Z,97.72
2023-02-09T22:19:40.596Z,98.72
2023-02-09T22:22:12.616Z,97.18
2023-02-09T22:24:43.877Z,96.08
2023-02-09T22:27:14.955Z,94.36
2023-02-09T22:29:47.701Z,98.30
2023-02-09T22:32:19.107Z,90.81
2023-02-09T22:34:50.142Z,94.62
2023-02-09T22:37:21.433Z,92.64
2023-02-09T22:39:52.353Z,94.26
2023-02-09T22:42:23.316Z,100.00
2023-02-09T22:47:25.811Z,100.00
2023-02-09T22:49:57.116Z,92.14
2023-02-09T22:52:28.516Z,99.00
2023-02-09T22:55:00.688Z,89.36
2023-02-09T22:57:33.290Z,89.68
2023-02-09T23:00:04.373Z,86.16
2023-02-09T23:02:35.525Z,89.52
2023-02-09T23:05:06.896Z,87.46
2023-02-09T23:07:38.254Z,88.41
2023-02-09T23:10:09.268Z,82.38
2023-02-09T23:12:40.516Z,79.59
2023-02-09T23:15:11.873Z,77.71
2023-02-09T23:17:43.374Z,78.45
2023-02-09T23:20:14.483Z,77.50
2023-02-09T23:22:45.100Z,86.24
2023-02-09T23:25:16.671Z,87.93
2023-02-09T23:27:47.771Z,84.30
2023-02-09T23:30:19.459Z,81.11
2023-02-09T23:32:50.714Z,83.31
2023-02-09T23:35:23.489Z,95.45
2023-02-09T23:37:55.152Z,92.30
2023-02-09T23:40:29.759Z,91.05
2023-02-09T23:43:00.990Z,85.38
2023-02-09T23:45:32.133Z,86.21
2023-02-09T23:48:03.144Z,91.90
2023-02-09T23:50:34.471Z,92.15
2023-02-09T23:53:05.757Z,98.77
2023-02-09T23:55:37.708Z,95.93
2023-02-09T23:58:08.015Z,92.39
